sensor_id;sensor_type;location;lat;lon;timestamp;P1;durP1;ratioP1;P2;durP2;ratioP2
43883;SDS011;71973;52.018;5.810;2024-03-02T00:01:14;1.90;;;1.00;;
43883;SDS011;71973;52.018;5.810;2024-03-02T00:03:41;2.07;;;0.90;;
43883;SDS011;71973;52.018;5.810;2024-03-02T00:06:08;1.48;;;0.88;;
43883;SDS011;71973;52.018;5.810;2024-03-02T00:08:33;1.23;;;0.80;;
43883;SDS011;71973;52.018;5.810;2024-03-02T00:11:00;2.67;;;0.70;;
43883;SDS011;71973;52.018;5.810;2024-03-02T00:13:27;1.75;;;0.90;;
43883;SDS011;71973;52.018;5.810;2024-03-02T00:15:56;1.17;;;0.80;;
43883;SDS011;71973;52.018;5.810;2024-03-02T00:18:26;1.95;;;0.85;;
43883;SDS011;71973;52.018;5.810;2024-03-02T00:20:55;1.25;;;0.68;;
43883;SDS011;71973;52.018;5.810;2024-03-02T00:23:24;1.40;;;0.65;;
43883;SDS011;71973;52.018;5.810;2024-03-02T00:25:55;1.35;;;0.80;;
43883;SDS011;71973;52.018;5.810;2024-03-02T00:33:15;1.42;;;0.70;;
43883;SDS011;71973;52.018;5.810;2024-03-02T00:35:43;1.30;;;0.73;;
43883;SDS011;71973;52.018;5.810;2024-03-02T00:38:09;1.63;;;0.98;;
43883;SDS011;71973;52.018;5.810;2024-03-02T00:40:35;1.10;;;0.80;;
43883;SDS011;71973;52.018;5.810;2024-03-02T00:43:01;2.03;;;0.90;;
43883;SDS011;71973;52.018;5.810;2024-03-02T00:45:28;2.00;;;0.90;;
43883;SDS011;71973;52.018;5.810;2024-03-02T00:47:54;1.85;;;0.85;;
43883;SDS011;71973;52.018;5.810;2024-03-02T00:50:20;1.83;;;0.68;;
43883;SDS011;71973;52.018;5.810;2024-03-02T00:52:46;1.77;;;1.00;;
43883;SDS011;71973;52.018;5.810;2024-03-02T00:55:13;2.05;;;0.80;;
43883;SDS011;71973;52.018;5.810;2024-03-02T00:57:39;1.27;;;0.63;;
43883;SDS011;71973;52.018;5.810;2024-03-02T01:00:05;1.35;;;0.80;;
43883;SDS011;71973;52.018;5.810;2024-03-02T01:02:35;0.88;;;0.60;;
43883;SDS011;71973;52.018;5.810;2024-03-02T01:05:00;1.60;;;0.90;;
43883;SDS011;71973;52.018;5.810;2024-03-02T01:07:26;1.33;;;0.90;;
43883;SDS011;71973;52.018;5.810;2024-03-02T01:09:52;1.53;;;0.93;;
43883;SDS011;71973;52.018;5.810;2024-03-02T01:12:17;2.30;;;1.10;;
43883;SDS011;71973;52.018;5.810;2024-03-02T01:14:43;1.30;;;0.80;;
43883;SDS011;71973;52.018;5.810;2024-03-02T01:17:08;1.43;;;0.70;;
43883;SDS011;71973;52.018;5.810;2024-03-02T01:19:34;1.57;;;0.80;;
43883;SDS011;71973;52.018;5.810;2024-03-02T01:21:59;1.30;;;0.80;;
43883;SDS011;71973;52.018;5.810;2024-03-02T01:24:25;2.00;;;0.70;;
43883;SDS011;71973;52.018;5.810;2024-03-02T01:26:50;0.90;;;0.67;;
43883;SDS011;71973;52.018;5.810;2024-03-02T01:29:16;1.73;;;0.87;;
43883;SDS011;71973;52.018;5.810;2024-03-02T01:31:42;1.63;;;0.97;;
43883;SDS011;71973;52.018;5.810;2024-03-02T01:34:07;2.20;;;0.87;;
43883;SDS011;71973;52.018;5.810;2024-03-02T01:36:33;1.33;;;0.82;;
43883;SDS011;71973;52.018;5.810;2024-03-02T01:38:59;1.13;;;0.73;;
43883;SDS011;71973;52.018;5.810;2024-03-02T01:41:24;2.03;;;0.80;;
43883;SDS011;71973;52.018;5.810;2024-03-02T01:43:50;1.53;;;0.60;;
43883;SDS011;71973;52.018;5.810;2024-03-02T01:46:16;2.27;;;1.03;;
43883;SDS011;71973;52.018;5.810;2024-03-02T01:48:42;1.37;;;0.70;;
43883;SDS011;71973;52.018;5.810;2024-03-02T01:51:07;2.27;;;0.77;;
43883;SDS011;71973;52.018;5.810;2024-03-02T01:53:33;1.20;;;0.60;;
43883;SDS011;71973;52.018;5.810;2024-03-02T01:58:26;1.17;;;0.88;;
43883;SDS011;71973;52.018;5.810;2024-03-02T02:00:52;1.27;;;0.73;;
43883;SDS011;71973;52.018;5.810;2024-03-02T02:03:18;1.50;;;0.83;;
43883;SDS011;71973;52.018;5.810;2024-03-02T02:05:43;0.87;;;0.70;;
43883;SDS011;71973;52.018;5.810;2024-03-02T02:08:09;0.90;;;0.67;;
43883;SDS011;71973;52.018;5.810;2024-03-02T02:10:35;1.77;;;0.70;;
43883;SDS011;71973;52.018;5.810;2024-03-02T02:13:01;0.43;;;0.43;;
43883;SDS011;71973;52.018;5.810;2024-03-02T02:15:28;0.60;;;0.38;;
43883;SDS011;71973;52.018;5.810;2024-03-02T02:17:58;1.70;;;0.85;;
43883;SDS011;71973;52.018;5.810;2024-03-02T02:20:24;0.82;;;0.60;;
43883;SDS011;71973;52.018;5.810;2024-03-02T02:22:56;0.88;;;0.60;;
43883;SDS011;71973;52.018;5.810;2024-03-02T02:25:26;1.33;;;0.68;;
43883;SDS011;71973;52.018;5.810;2024-03-02T02:30:29;1.10;;;0.60;;
43883;SDS011;71973;52.018;5.810;2024-03-02T02:32:57;0.98;;;0.55;;
43883;SDS011;71973;52.018;5.810;2024-03-02T02:35:23;0.90;;;0.52;;
43883;SDS011;71973;52.018;5.810;2024-03-02T02:37:49;0.60;;;0.50;;
43883;SDS011;71973;52.018;5.810;2024-03-02T02:40:15;0.50;;;0.50;;
43883;SDS011;71973;52.018;5.810;2024-03-02T02:42:41;1.00;;;0.50;;
43883;SDS011;71973;52.018;5.810;2024-03-02T02:45:07;1.35;;;0.70;;
43883;SDS011;71973;52.018;5.810;2024-03-02T02:47:34;1.27;;;0.50;;
43883;SDS011;71973;52.018;5.810;2024-03-02T02:50:03;0.85;;;0.50;;
43883;SDS011;71973;52.018;5.810;2024-03-02T02:52:35;0.80;;;0.60;;
43883;SDS011;71973;52.018;5.810;2024-03-02T02:55:04;1.15;;;0.70;;
43883;SDS011;71973;52.018;5.810;2024-03-02T02:57:32;0.93;;;0.40;;
43883;SDS011;71973;52.018;5.810;2024-03-02T03:00:07;0.82;;;0.50;;
43883;SDS011;71973;52.018;5.810;2024-03-02T03:02:41;1.42;;;0.60;;
43883;SDS011;71973;52.018;5.810;2024-03-02T03:05:08;0.88;;;0.43;;
43883;SDS011;71973;52.018;5.810;2024-03-02T03:07:34;0.90;;;0.50;;
43883;SDS011;71973;52.018;5.810;2024-03-02T03:10:01;0.85;;;0.60;;
43883;SDS011;71973;52.018;5.810;2024-03-02T03:12:28;1.17;;;0.57;;
43883;SDS011;71973;52.018;5.810;2024-03-02T03:14:54;0.90;;;0.50;;
43883;SDS011;71973;52.018;5.810;2024-03-02T03:17:20;1.02;;;0.43;;
43883;SDS011;71973;52.018;5.810;2024-03-02T03:22:12;1.67;;;0.50;;
43883;SDS011;71973;52.018;5.810;2024-03-02T03:24:38;0.30;;;0.30;;
43883;SDS011;71973;52.018;5.810;2024-03-02T03:27:04;0.83;;;0.50;;
43883;SDS011;71973;52.018;5.810;2024-03-02T03:29:29;0.67;;;0.30;;
43883;SDS011;71973;52.018;5.810;2024-03-02T03:31:55;0.50;;;0.23;;
43883;SDS011;71973;52.018;5.810;2024-03-02T03:34:20;0.60;;;0.37;;
43883;SDS011;71973;52.018;5.810;2024-03-02T03:36:46;0.73;;;0.33;;
43883;SDS011;71973;52.018;5.810;2024-03-02T03:39:11;0.40;;;0.40;;
43883;SDS011;71973;52.018;5.810;2024-03-02T03:41:37;0.63;;;0.37;;
43883;SDS011;71973;52.018;5.810;2024-03-02T03:44:03;0.80;;;0.40;;
43883;SDS011;71973;52.018;5.810;2024-03-02T03:46:28;0.20;;;0.17;;
43883;SDS011;71973;52.018;5.810;2024-03-02T03:48:54;0.30;;;0.30;;
43883;SDS011;71973;52.018;5.810;2024-03-02T03:51:21;1.08;;;0.47;;
43883;SDS011;71973;52.018;5.810;2024-03-02T03:53:47;0.85;;;0.40;;
43883;SDS011;71973;52.018;5.810;2024-03-02T03:56:13;0.17;;;0.17;;
43883;SDS011;71973;52.018;5.810;2024-03-02T03:58:39;1.50;;;0.20;;
43883;SDS011;71973;52.018;5.810;2024-03-02T04:01:04;0.20;;;0.20;;
43883;SDS011;71973;52.018;5.810;2024-03-02T04:03:30;0.50;;;0.30;;
43883;SDS011;71973;52.018;5.810;2024-03-02T04:05:55;0.30;;;0.30;;
43883;SDS011;71973;52.018;5.810;2024-03-02T04:08:21;0.67;;;0.53;;
43883;SDS011;71973;52.018;5.810;2024-03-02T04:10:47;0.47;;;0.30;;
43883;SDS011;71973;52.018;5.810;2024-03-02T04:13:13;0.20;;;0.20;;
43883;SDS011;71973;52.018;5.810;2024-03-02T04:15:39;0.30;;;0.30;;
43883;SDS011;71973;52.018;5.810;2024-03-02T04:18:05;0.50;;;0.30;;
43883;SDS011;71973;52.018;5.810;2024-03-02T04:20:31;0.10;;;0.10;;
43883;SDS011;71973;52.018;5.810;2024-03-02T04:25:23;0.20;;;0.20;;
43883;SDS011;71973;52.018;5.810;2024-03-02T04:27:49;2.23;;;0.30;;
43883;SDS011;71973;52.018;5.810;2024-03-02T04:30:15;0.30;;;0.30;;
43883;SDS011;71973;52.018;5.810;2024-03-02T04:32:40;0.40;;;0.20;;
43883;SDS011;71973;52.018;5.810;2024-03-02T04:35:06;1.45;;;0.40;;
43883;SDS011;71973;52.018;5.810;2024-03-02T04:37:35;0.30;;;0.20;;
43883;SDS011;71973;52.018;5.810;2024-03-02T04:40:01;0.27;;;0.17;;
43883;SDS011;71973;52.018;5.810;2024-03-02T04:42:26;0.10;;;0.10;;
43883;SDS011;71973;52.018;5.810;2024-03-02T04:44:52;0.20;;;0.20;;
43883;SDS011;71973;52.018;5.810;2024-03-02T04:47:17;0.20;;;0.20;;
43883;SDS011;71973;52.018;5.810;2024-03-02T04:49:43;0.20;;;0.10;;
43883;SDS011;71973;52.018;5.810;2024-03-02T04:52:09;0.93;;;0.30;;
43883;SDS011;71973;52.018;5.810;2024-03-02T04:54:34;0.80;;;0.37;;
43883;SDS011;71973;52.018;5.810;2024-03-02T04:57:23;0.10;;;0.10;;
43883;SDS011;71973;52.018;5.810;2024-03-02T04:59:48;0.50;;;0.30;;
43883;SDS011;71973;52.018;5.810;2024-03-02T05:02:14;0.30;;;0.20;;
43883;SDS011;71973;52.018;5.810;2024-03-02T05:04:40;0.30;;;0.30;;
43883;SDS011;71973;52.018;5.810;2024-03-02T05:07:06;1.73;;;0.63;;
43883;SDS011;71973;52.018;5.810;2024-03-02T05:09:32;0.67;;;0.20;;
43883;SDS011;71973;52.018;5.810;2024-03-02T05:11:58;0.20;;;0.20;;
43883;SDS011;71973;52.018;5.810;2024-03-02T05:14:39;0.28;;;0.20;;
43883;SDS011;71973;52.018;5.810;2024-03-02T05:17:04;0.40;;;0.40;;
43883;SDS011;71973;52.018;5.810;2024-03-02T05:19:30;0.57;;;0.23;;
43883;SDS011;71973;52.018;5.810;2024-03-02T05:21:55;1.40;;;0.50;;
43883;SDS011;71973;52.018;5.810;2024-03-02T05:24:21;0.40;;;0.20;;
43883;SDS011;71973;52.018;5.810;2024-03-02T05:26:47;0.33;;;0.20;;
43883;SDS011;71973;52.018;5.810;2024-03-02T05:29:12;0.37;;;0.37;;
43883;SDS011;71973;52.018;5.810;2024-03-02T05:31:38;0.33;;;0.10;;
43883;SDS011;71973;52.018;5.810;2024-03-02T05:34:03;0.63;;;0.20;;
43883;SDS011;71973;52.018;5.810;2024-03-02T05:36:30;0.22;;;0.22;;
43883;SDS011;71973;52.018;5.810;2024-03-02T05:38:56;0.10;;;0.10;;
43883;SDS011;71973;52.018;5.810;2024-03-02T05:41:22;0.50;;;0.20;;
43883;SDS011;71973;52.018;5.810;2024-03-02T05:43:47;0.30;;;0.30;;
43883;SDS011;71973;52.018;5.810;2024-03-02T05:48:40;0.60;;;0.30;;
43883;SDS011;71973;52.018;5.810;2024-03-02T05:51:05;0.30;;;0.20;;
43883;SDS011;71973;52.018;5.810;2024-03-02T05:53:31;0.30;;;0.27;;
43883;SDS011;71973;52.018;5.810;2024-03-02T05:55:56;0.40;;;0.20;;
43883;SDS011;71973;52.018;5.810;2024-03-02T05:58:22;1.27;;;0.13;;
43883;SDS011;71973;52.018;5.810;2024-03-02T06:01:06;1.65;;;0.47;;
43883;SDS011;71973;52.018;5.810;2024-03-02T06:03:32;0.10;;;0.10;;
43883;SDS011;71973;52.018;5.810;2024-03-02T06:05:57;0.50;;;0.27;;
43883;SDS011;71973;52.018;5.810;2024-03-02T06:08:23;0.13;;;0.13;;
43883;SDS011;71973;52.018;5.810;2024-03-02T06:10:49;0.73;;;0.30;;
43883;SDS011;71973;52.018;5.810;2024-03-02T06:13:14;0.20;;;0.20;;
43883;SDS011;71973;52.018;5.810;2024-03-02T06:15:40;0.20;;;0.20;;
43883;SDS011;71973;52.018;5.810;2024-03-02T06:18:06;0.17;;;0.17;;
43883;SDS011;71973;52.018;5.810;2024-03-02T06:20:32;0.10;;;0.10;;
43883;SDS011;71973;52.018;5.810;2024-03-02T06:22:58;0.60;;;0.20;;
43883;SDS011;71973;52.018;5.810;2024-03-02T06:25:24;0.60;;;0.17;;
43883;SDS011;71973;52.018;5.810;2024-03-02T06:27:49;1.07;;;0.33;;
43883;SDS011;71973;52.018;5.810;2024-03-02T06:30:15;0.60;;;0.30;;
43883;SDS011;71973;52.018;5.810;2024-03-02T06:32:40;0.30;;;0.30;;
43883;SDS011;71973;52.018;5.810;2024-03-02T06:35:06;0.20;;;0.20;;
43883;SDS011;71973;52.018;5.810;2024-03-02T06:37:34;0.73;;;0.28;;
43883;SDS011;71973;52.018;5.810;2024-03-02T06:40:01;0.77;;;0.32;;
43883;SDS011;71973;52.018;5.810;2024-03-02T06:42:27;0.08;;;0.08;;
43883;SDS011;71973;52.018;5.810;2024-03-02T06:44:58;0.63;;;0.30;;
43883;SDS011;71973;52.018;5.810;2024-03-02T06:47:23;0.20;;;0.20;;
43883;SDS011;71973;52.018;5.810;2024-03-02T06:49:49;0.40;;;0.30;;
43883;SDS011;71973;52.018;5.810;2024-03-02T06:52:14;0.53;;;0.30;;
43883;SDS011;71973;52.018;5.810;2024-03-02T06:54:40;2.20;;;0.40;;
43883;SDS011;71973;52.018;5.810;2024-03-02T06:57:06;1.33;;;0.33;;
43883;SDS011;71973;52.018;5.810;2024-03-02T06:59:31;1.67;;;0.40;;
43883;SDS011;71973;52.018;5.810;2024-03-02T07:01:58;0.55;;;0.40;;
43883;SDS011;71973;52.018;5.810;2024-03-02T07:04:24;0.30;;;0.30;;
43883;SDS011;71973;52.018;5.810;2024-03-02T07:06:50;0.50;;;0.20;;
43883;SDS011;71973;52.018;5.810;2024-03-02T07:09:16;0.35;;;0.30;;
43883;SDS011;71973;52.018;5.810;2024-03-02T07:11:42;0.35;;;0.35;;
43883;SDS011;71973;52.018;5.810;2024-03-02T07:14:08;2.00;;;0.30;;
43883;SDS011;71973;52.018;5.810;2024-03-02T07:16:33;2.10;;;0.77;;
43883;SDS011;71973;52.018;5.810;2024-03-02T07:18:59;0.30;;;0.30;;
43883;SDS011;71973;52.018;5.810;2024-03-02T07:23:52;0.40;;;0.30;;
43883;SDS011;71973;52.018;5.810;2024-03-02T07:26:18;0.63;;;0.27;;
43883;SDS011;71973;52.018;5.810;2024-03-02T07:28:45;1.67;;;0.35;;
43883;SDS011;71973;52.018;5.810;2024-03-02T07:31:13;1.05;;;0.40;;
43883;SDS011;71973;52.018;5.810;2024-03-02T07:33:38;2.60;;;0.60;;
43883;SDS011;71973;52.018;5.810;2024-03-02T07:36:04;0.10;;;0.10;;
43883;SDS011;71973;52.018;5.810;2024-03-02T07:38:30;2.65;;;0.30;;
43883;SDS011;71973;52.018;5.810;2024-03-02T07:40:59;0.40;;;0.20;;
43883;SDS011;71973;52.018;5.810;2024-03-02T07:43:25;0.47;;;0.22;;
43883;SDS011;71973;52.018;5.810;2024-03-02T07:45:54;1.42;;;0.30;;
43883;SDS011;71973;52.018;5.810;2024-03-02T07:48:20;0.75;;;0.40;;
43883;SDS011;71973;52.018;5.810;2024-03-02T07:50:46;0.50;;;0.30;;
43883;SDS011;71973;52.018;5.810;2024-03-02T07:53:11;0.50;;;0.30;;
43883;SDS011;71973;52.018;5.810;2024-03-02T07:55:37;0.57;;;0.15;;
43883;SDS011;71973;52.018;5.810;2024-03-02T07:58:03;1.93;;;0.30;;
43883;SDS011;71973;52.018;5.810;2024-03-02T08:00:28;0.60;;;0.30;;
43883;SDS011;71973;52.018;5.810;2024-03-02T08:02:54;0.23;;;0.20;;
43883;SDS011;71973;52.018;5.810;2024-03-02T08:05:20;0.57;;;0.30;;
43883;SDS011;71973;52.018;5.810;2024-03-02T08:07:46;0.50;;;0.50;;
43883;SDS011;71973;52.018;5.810;2024-03-02T08:10:12;0.35;;;0.30;;
43883;SDS011;71973;52.018;5.810;2024-03-02T08:12:38;0.40;;;0.20;;
43883;SDS011;71973;52.018;5.810;2024-03-02T08:15:04;0.87;;;0.33;;
43883;SDS011;71973;52.018;5.810;2024-03-02T08:17:30;1.52;;;0.40;;
43883;SDS011;71973;52.018;5.810;2024-03-02T08:19:56;1.20;;;0.30;;
43883;SDS011;71973;52.018;5.810;2024-03-02T08:22:22;4.97;;;0.63;;
43883;SDS011;71973;52.018;5.810;2024-03-02T08:24:50;1.88;;;0.65;;
43883;SDS011;71973;52.018;5.810;2024-03-02T08:27:16;1.05;;;0.50;;
43883;SDS011;71973;52.018;5.810;2024-03-02T08:29:41;3.97;;;0.67;;
43883;SDS011;71973;52.018;5.810;2024-03-02T08:32:07;2.80;;;0.80;;
43883;SDS011;71973;52.018;5.810;2024-03-02T08:34:33;1.20;;;0.50;;
43883;SDS011;71973;52.018;5.810;2024-03-02T08:37:00;1.65;;;0.70;;
43883;SDS011;71973;52.018;5.810;2024-03-02T08:39:26;6.95;;;1.20;;
43883;SDS011;71973;52.018;5.810;2024-03-02T08:41:52;4.33;;;0.73;;
43883;SDS011;71973;52.018;5.810;2024-03-02T08:44:18;1.23;;;0.40;;
43883;SDS011;71973;52.018;5.810;2024-03-02T08:46:44;3.43;;;0.70;;
43883;SDS011;71973;52.018;5.810;2024-03-02T08:49:15;1.73;;;0.80;;
43883;SDS011;71973;52.018;5.810;2024-03-02T08:51:41;3.47;;;0.80;;
43883;SDS011;71973;52.018;5.810;2024-03-02T08:54:06;2.47;;;0.80;;
43883;SDS011;71973;52.018;5.810;2024-03-02T08:56:32;1.47;;;0.77;;
43883;SDS011;71973;52.018;5.810;2024-03-02T08:58:57;3.37;;;1.03;;
43883;SDS011;71973;52.018;5.810;2024-03-02T09:01:23;3.83;;;1.17;;
43883;SDS011;71973;52.018;5.810;2024-03-02T09:03:49;3.50;;;0.50;;
43883;SDS011;71973;52.018;5.810;2024-03-02T09:06:15;1.60;;;0.53;;
43883;SDS011;71973;52.018;5.810;2024-03-02T09:08:45;2.15;;;0.70;;
43883;SDS011;71973;52.018;5.810;2024-03-02T09:11:10;2.23;;;0.80;;
43883;SDS011;71973;52.018;5.810;2024-03-02T09:13:37;3.45;;;0.90;;
43883;SDS011;71973;52.018;5.810;2024-03-02T09:16:03;1.98;;;0.68;;
43883;SDS011;71973;52.018;5.810;2024-03-02T09:18:30;2.33;;;1.10;;
43883;SDS011;71973;52.018;5.810;2024-03-02T09:20:55;1.40;;;0.67;;
43883;SDS011;71973;52.018;5.810;2024-03-02T09:23:21;3.23;;;0.80;;
43883;SDS011;71973;52.018;5.810;2024-03-02T09:25:47;4.77;;;1.23;;
43883;SDS011;71973;52.018;5.810;2024-03-02T09:28:12;2.80;;;0.87;;
43883;SDS011;71973;52.018;5.810;2024-03-02T09:30:40;3.70;;;0.90;;
43883;SDS011;71973;52.018;5.810;2024-03-02T09:33:05;2.73;;;1.00;;
43883;SDS011;71973;52.018;5.810;2024-03-02T09:35:31;2.67;;;0.87;;
43883;SDS011;71973;52.018;5.810;2024-03-02T09:37:57;8.65;;;1.20;;
43883;SDS011;71973;52.018;5.810;2024-03-02T09:40:22;4.43;;;1.07;;
43883;SDS011;71973;52.018;5.810;2024-03-02T09:42:48;4.38;;;1.05;;
43883;SDS011;71973;52.018;5.810;2024-03-02T09:45:19;3.53;;;1.23;;
43883;SDS011;71973;52.018;5.810;2024-03-02T09:47:49;4.90;;;1.30;;
43883;SDS011;71973;52.018;5.810;2024-03-02T09:50:15;6.35;;;1.00;;
43883;SDS011;71973;52.018;5.810;2024-03-02T09:52:44;6.77;;;1.20;;
43883;SDS011;71973;52.018;5.810;2024-03-02T09:55:13;3.03;;;0.95;;
43883;SDS011;71973;52.018;5.810;2024-03-02T09:57:40;2.75;;;1.00;;
43883;SDS011;71973;52.018;5.810;2024-03-02T10:00:07;2.00;;;0.88;;
43883;SDS011;71973;52.018;5.810;2024-03-02T10:02:33;3.92;;;1.17;;
43883;SDS011;71973;52.018;5.810;2024-03-02T10:04:59;4.40;;;1.03;;
43883;SDS011;71973;52.018;5.810;2024-03-02T10:07:24;4.10;;;1.07;;
43883;SDS011;71973;52.018;5.810;2024-03-02T10:09:50;4.93;;;1.07;;
43883;SDS011;71973;52.018;5.810;2024-03-02T10:12:17;3.20;;;0.80;;
43883;SDS011;71973;52.018;5.810;2024-03-02T10:14:43;4.78;;;1.30;;
43883;SDS011;71973;52.018;5.810;2024-03-02T10:17:10;2.50;;;1.00;;
43883;SDS011;71973;52.018;5.810;2024-03-02T10:19:37;5.28;;;1.10;;
43883;SDS011;71973;52.018;5.810;2024-03-02T10:24:38;3.17;;;0.90;;
43883;SDS011;71973;52.018;5.810;2024-03-02T10:27:07;2.72;;;0.93;;
43883;SDS011;71973;52.018;5.810;2024-03-02T10:29:40;2.30;;;0.77;;
43883;SDS011;71973;52.018;5.810;2024-03-02T10:32:09;3.47;;;1.00;;
43883;SDS011;71973;52.018;5.810;2024-03-02T10:34:36;2.60;;;0.90;;
43883;SDS011;71973;52.018;5.810;2024-03-02T10:37:02;3.60;;;0.90;;
43883;SDS011;71973;52.018;5.810;2024-03-02T10:39:28;4.10;;;0.93;;
43883;SDS011;71973;52.018;5.810;2024-03-02T10:41:55;6.72;;;1.20;;
43883;SDS011;71973;52.018;5.810;2024-03-02T10:44:22;4.40;;;1.17;;
43883;SDS011;71973;52.018;5.810;2024-03-02T10:46:48;3.70;;;1.17;;
43883;SDS011;71973;52.018;5.810;2024-03-02T10:49:18;8.40;;;1.40;;
43883;SDS011;71973;52.018;5.810;2024-03-02T10:51:45;2.70;;;0.90;;
43883;SDS011;71973;52.018;5.810;2024-03-02T10:54:17;5.70;;;0.80;;
43883;SDS011;71973;52.018;5.810;2024-03-02T10:56:44;4.63;;;1.17;;
43883;SDS011;71973;52.018;5.810;2024-03-02T11:01:48;11.00;;;1.50;;
43883;SDS011;71973;52.018;5.810;2024-03-02T11:04:16;4.55;;;1.23;;
43883;SDS011;71973;52.018;5.810;2024-03-02T11:06:48;3.00;;;1.10;;
43883;SDS011;71973;52.018;5.810;2024-03-02T11:09:15;1.85;;;0.80;;
43883;SDS011;71973;52.018;5.810;2024-03-02T11:11:48;6.22;;;1.55;;
43883;SDS011;71973;52.018;5.810;2024-03-02T11:14:21;4.57;;;0.85;;
43883;SDS011;71973;52.018;5.810;2024-03-02T11:16:50;4.22;;;0.80;;
43883;SDS011;71973;52.018;5.810;2024-03-02T11:19:17;3.60;;;0.80;;
43883;SDS011;71973;52.018;5.810;2024-03-02T11:26:52;2.20;;;0.80;;
43883;SDS011;71973;52.018;5.810;2024-03-02T11:34:32;3.33;;;0.93;;
43883;SDS011;71973;52.018;5.810;2024-03-02T11:37:01;5.22;;;1.38;;
43883;SDS011;71973;52.018;5.810;2024-03-02T11:39:27;5.40;;;1.13;;
43883;SDS011;71973;52.018;5.810;2024-03-02T11:41:54;3.30;;;1.10;;
43883;SDS011;71973;52.018;5.810;2024-03-02T11:44:27;2.78;;;0.90;;
43883;SDS011;71973;52.018;5.810;2024-03-02T11:46:59;3.00;;;1.15;;
43883;SDS011;71973;52.018;5.810;2024-03-02T11:49:38;1.85;;;0.95;;
43883;SDS011;71973;52.018;5.810;2024-03-02T11:52:08;2.35;;;1.08;;
43883;SDS011;71973;52.018;5.810;2024-03-02T11:54:36;4.78;;;0.95;;
43883;SDS011;71973;52.018;5.810;2024-03-02T11:57:11;1.83;;;0.70;;
43883;SDS011;71973;52.018;5.810;2024-03-02T11:59:37;2.75;;;1.13;;
43883;SDS011;71973;52.018;5.810;2024-03-02T12:02:03;2.00;;;0.73;;
43883;SDS011;71973;52.018;5.810;2024-03-02T12:04:29;3.93;;;0.80;;
43883;SDS011;71973;52.018;5.810;2024-03-02T12:06:59;1.88;;;0.93;;
43883;SDS011;71973;52.018;5.810;2024-03-02T12:09:28;2.63;;;1.15;;
43883;SDS011;71973;52.018;5.810;2024-03-02T12:12:04;2.65;;;0.70;;
43883;SDS011;71973;52.018;5.810;2024-03-02T12:14:31;2.47;;;0.90;;
43883;SDS011;71973;52.018;5.810;2024-03-02T12:16:58;2.13;;;0.63;;
43883;SDS011;71973;52.018;5.810;2024-03-02T12:19:24;3.33;;;0.90;;
43883;SDS011;71973;52.018;5.810;2024-03-02T12:21:51;2.65;;;0.82;;
43883;SDS011;71973;52.018;5.810;2024-03-02T12:24:17;2.17;;;0.88;;
43883;SDS011;71973;52.018;5.810;2024-03-02T12:26:43;2.67;;;0.90;;
43883;SDS011;71973;52.018;5.810;2024-03-02T12:29:10;2.33;;;0.63;;
43883;SDS011;71973;52.018;5.810;2024-03-02T12:31:36;3.78;;;0.98;;
43883;SDS011;71973;52.018;5.810;2024-03-02T12:34:02;1.73;;;0.80;;
43883;SDS011;71973;52.018;5.810;2024-03-02T12:36:29;2.97;;;0.68;;
43883;SDS011;71973;52.018;5.810;2024-03-02T12:38:54;3.80;;;0.80;;
43883;SDS011;71973;52.018;5.810;2024-03-02T12:41:20;2.23;;;0.60;;
43883;SDS011;71973;52.018;5.810;2024-03-02T12:43:46;2.80;;;0.70;;
43883;SDS011;71973;52.018;5.810;2024-03-02T12:46:12;3.05;;;0.90;;
43883;SDS011;71973;52.018;5.810;2024-03-02T12:48:37;3.50;;;0.80;;
43883;SDS011;71973;52.018;5.810;2024-03-02T12:51:06;4.68;;;1.00;;
43883;SDS011;71973;52.018;5.810;2024-03-02T12:53:31;3.25;;;1.00;;
43883;SDS011;71973;52.018;5.810;2024-03-02T12:55:57;3.70;;;1.17;;
43883;SDS011;71973;52.018;5.810;2024-03-02T12:58:23;4.15;;;1.08;;
43883;SDS011;71973;52.018;5.810;2024-03-02T13:00:49;2.70;;;0.97;;
43883;SDS011;71973;52.018;5.810;2024-03-02T13:03:15;3.47;;;0.90;;
43883;SDS011;71973;52.018;5.810;2024-03-02T13:05:48;3.50;;;0.90;;
43883;SDS011;71973;52.018;5.810;2024-03-02T13:08:14;2.70;;;1.00;;
43883;SDS011;71973;52.018;5.810;2024-03-02T13:10:40;2.43;;;1.00;;
43883;SDS011;71973;52.018;5.810;2024-03-02T13:13:06;2.60;;;0.87;;
43883;SDS011;71973;52.018;5.810;2024-03-02T13:15:32;5.00;;;1.03;;
43883;SDS011;71973;52.018;5.810;2024-03-02T13:17:59;3.40;;;0.90;;
43883;SDS011;71973;52.018;5.810;2024-03-02T13:20:29;5.75;;;2.28;;
43883;SDS011;71973;52.018;5.810;2024-03-02T13:22:56;3.47;;;1.00;;
43883;SDS011;71973;52.018;5.810;2024-03-02T13:25:22;2.97;;;0.80;;
43883;SDS011;71973;52.018;5.810;2024-03-02T13:27:48;1.87;;;0.77;;
43883;SDS011;71973;52.018;5.810;2024-03-02T13:30:13;3.97;;;1.10;;
43883;SDS011;71973;52.018;5.810;2024-03-02T13:32:39;2.63;;;0.80;;
43883;SDS011;71973;52.018;5.810;2024-03-02T13:35:04;3.27;;;0.93;;
43883;SDS011;71973;52.018;5.810;2024-03-02T13:37:30;2.67;;;0.90;;
43883;SDS011;71973;52.018;5.810;2024-03-02T13:39:55;2.77;;;0.97;;
43883;SDS011;71973;52.018;5.810;2024-03-02T13:42:21;3.23;;;1.00;;
43883;SDS011;71973;52.018;5.810;2024-03-02T13:44:47;3.60;;;1.20;;
43883;SDS011;71973;52.018;5.810;2024-03-02T13:47:14;4.75;;;0.88;;
43883;SDS011;71973;52.018;5.810;2024-03-02T13:49:40;2.17;;;0.80;;
43883;SDS011;71973;52.018;5.810;2024-03-02T13:52:10;2.97;;;0.95;;
43883;SDS011;71973;52.018;5.810;2024-03-02T13:54:38;4.60;;;1.00;;
43883;SDS011;71973;52.018;5.810;2024-03-02T13:57:07;2.42;;;1.33;;
43883;SDS011;71973;52.018;5.810;2024-03-02T14:02:02;2.17;;;0.82;;
43883;SDS011;71973;52.018;5.810;2024-03-02T14:04:30;3.92;;;0.90;;
43883;SDS011;71973;52.018;5.810;2024-03-02T14:06:59;3.75;;;0.85;;
43883;SDS011;71973;52.018;5.810;2024-03-02T14:09:25;2.55;;;0.88;;
43883;SDS011;71973;52.018;5.810;2024-03-02T14:11:52;2.50;;;0.90;;
43883;SDS011;71973;52.018;5.810;2024-03-02T14:14:18;4.82;;;1.13;;
43883;SDS011;71973;52.018;5.810;2024-03-02T14:16:44;2.33;;;0.77;;
43883;SDS011;71973;52.018;5.810;2024-03-02T14:19:10;3.53;;;0.90;;
43883;SDS011;71973;52.018;5.810;2024-03-02T14:21:37;4.22;;;0.82;;
43883;SDS011;71973;52.018;5.810;2024-03-02T14:24:03;3.33;;;1.00;;
43883;SDS011;71973;52.018;5.810;2024-03-02T14:26:28;3.63;;;1.02;;
43883;SDS011;71973;52.018;5.810;2024-03-02T14:28:54;2.05;;;0.95;;
43883;SDS011;71973;52.018;5.810;2024-03-02T14:31:20;2.43;;;1.33;;
43883;SDS011;71973;52.018;5.810;2024-03-02T14:33:46;3.35;;;1.02;;
43883;SDS011;71973;52.018;5.810;2024-03-02T14:36:12;4.15;;;1.00;;
43883;SDS011;71973;52.018;5.810;2024-03-02T14:38:38;2.50;;;1.00;;
43883;SDS011;71973;52.018;5.810;2024-03-02T14:41:04;3.67;;;1.10;;
43883;SDS011;71973;52.018;5.810;2024-03-02T14:43:30;2.45;;;1.25;;
43883;SDS011;71973;52.018;5.810;2024-03-02T14:45:56;1.00;;;0.47;;
43883;SDS011;71973;52.018;5.810;2024-03-02T14:48:22;2.50;;;0.82;;
43883;SDS011;71973;52.018;5.810;2024-03-02T14:50:48;3.47;;;1.03;;
43883;SDS011;71973;52.018;5.810;2024-03-02T14:53:14;2.20;;;0.90;;
43883;SDS011;71973;52.018;5.810;2024-03-02T14:55:39;2.60;;;0.90;;
43883;SDS011;71973;52.018;5.810;2024-03-02T14:58:05;4.87;;;1.10;;
43883;SDS011;71973;52.018;5.810;2024-03-02T15:00:30;2.33;;;1.20;;
43883;SDS011;71973;52.018;5.810;2024-03-02T15:02:56;2.30;;;0.90;;
43883;SDS011;71973;52.018;5.810;2024-03-02T15:05:22;3.87;;;1.10;;
43883;SDS011;71973;52.018;5.810;2024-03-02T15:07:47;5.57;;;1.07;;
43883;SDS011;71973;52.018;5.810;2024-03-02T15:10:13;2.67;;;0.90;;
43883;SDS011;71973;52.018;5.810;2024-03-02T15:12:39;3.37;;;0.77;;
43883;SDS011;71973;52.018;5.810;2024-03-02T15:15:04;3.73;;;1.10;;
43883;SDS011;71973;52.018;5.810;2024-03-02T15:17:30;2.50;;;0.90;;
43883;SDS011;71973;52.018;5.810;2024-03-02T15:19:56;7.40;;;1.25;;
43883;SDS011;71973;52.018;5.810;2024-03-02T15:22:22;5.23;;;0.87;;